EZY234 EGPH-EGKK
Flight info
| Callsign | EZY234 |
|---|---|
| Flight time | N/A |
| Altitude | 31000 |
| Route | GOSAM P600 FENIK L612 NAVSO DCT ADZOP DCT EGTOC DCT KEPAD L151 DISIT |
| Aircraft | A320/M-SDE3FGHIRWY/LB1 |
Departure
| Time | 2026-04-21 22:37 |
|---|---|
| Airport | Edinburgh Airport (EGPH) |
Arrival
| Time | N/A |
|---|---|
| Airport | London Gatwick Airport (EGKK) |
| Time | Latitude | Longitude | Altitude | Speed | Heading |
|---|---|---|---|---|---|
| 2026-04-21 21:35 | 55.94750 | -3.35490 | 109 ft | 0 kts | 209° |
| 2026-04-21 22:22 | 55.94763 | -3.35477 | 100 ft | 3 kts | 209° |
| 2026-04-21 22:23 | 55.94775 | -3.35459 | 107 ft | 2 kts | 239° |
| 2026-04-21 22:23 | 55.94784 | -3.35435 | 109 ft | 2 kts | 248° |
| 2026-04-21 22:23 | 55.94786 | -3.35412 | 109 ft | 0 kts | 304° |
| 2026-04-21 22:23 | 55.94787 | -3.35412 | 109 ft | 0 kts | 304° |
| 2026-04-21 22:29 | 55.94790 | -3.35421 | 109 ft | 3 kts | 304° |
| 2026-04-21 22:29 | 55.94805 | -3.35460 | 108 ft | 5 kts | 304° |
| 2026-04-21 22:29 | 55.94841 | -3.35556 | 108 ft | 13 kts | 302° |
| 2026-04-21 22:30 | 55.94884 | -3.35687 | 108 ft | 12 kts | 298° |
| 2026-04-21 22:30 | 55.94919 | -3.35809 | 107 ft | 11 kts | 301° |
| 2026-04-21 22:30 | 55.94981 | -3.35845 | 107 ft | 10 kts | 10° |
| 2026-04-21 22:30 | 55.95060 | -3.35802 | 107 ft | 12 kts | 6° |
| 2026-04-21 22:31 | 55.95128 | -3.35883 | 106 ft | 13 kts | 309° |
| 2026-04-21 22:31 | 55.95198 | -3.35988 | 102 ft | 14 kts | 306° |
| 2026-04-21 22:31 | 55.95185 | -3.36138 | 103 ft | 11 kts | 243° |
| 2026-04-21 22:31 | 55.95150 | -3.36249 | 104 ft | 9 kts | 239° |
| 2026-04-21 22:32 | 55.95113 | -3.36357 | 105 ft | 14 kts | 238° |
| 2026-04-21 22:32 | 55.95070 | -3.36477 | 108 ft | 20 kts | 237° |
| 2026-04-21 22:32 | 55.94943 | -3.36844 | 106 ft | 28 kts | 239° |
| 2026-04-21 22:32 | 55.94845 | -3.37135 | 105 ft | 26 kts | 238° |
| 2026-04-21 22:33 | 55.94784 | -3.37314 | 106 ft | 24 kts | 239° |
| 2026-04-21 22:33 | 55.94680 | -3.37620 | 113 ft | 19 kts | 239° |
| 2026-04-21 22:33 | 55.94637 | -3.37747 | 114 ft | 17 kts | 238° |
| 2026-04-21 22:33 | 55.94574 | -3.37931 | 113 ft | 17 kts | 238° |
| 2026-04-21 22:34 | 55.94514 | -3.38108 | 110 ft | 17 kts | 239° |
| 2026-04-21 22:34 | 55.94456 | -3.38281 | 111 ft | 15 kts | 238° |
| 2026-04-21 22:34 | 55.94408 | -3.38422 | 114 ft | 12 kts | 239° |
| 2026-04-21 22:34 | 55.94369 | -3.38535 | 114 ft | 9 kts | 239° |
| 2026-04-21 22:35 | 55.94346 | -3.38603 | 116 ft | 5 kts | 238° |
| 2026-04-21 22:35 | 55.94321 | -3.38678 | 115 ft | 10 kts | 239° |
| 2026-04-21 22:35 | 55.94287 | -3.38788 | 117 ft | 9 kts | 251° |
| 2026-04-21 22:35 | 55.94308 | -3.38882 | 118 ft | 9 kts | 319° |
| 2026-04-21 22:36 | 55.94422 | -3.38943 | 115 ft | 9 kts | 55° |
| 2026-04-21 22:36 | 55.94468 | -3.38811 | 115 ft | 22 kts | 58° |
| 2026-04-21 22:36 | 55.94678 | -3.38194 | 114 ft | 92 kts | 59° |
| 2026-04-21 22:37 | 55.95106 | -3.36919 | 141 ft | 142 kts | 60° |
| 2026-04-21 22:37 | 55.95553 | -3.35477 | 973 ft | 129 kts | 62° |
| 2026-04-21 22:37 | 55.96049 | -3.34118 | 1654 ft | 131 kts | 47° |
| 2026-04-21 22:37 | 55.96789 | -3.33019 | 2133 ft | 148 kts | 43° |
| 2026-04-21 22:38 | 55.97596 | -3.31779 | 2574 ft | 163 kts | 44° |
| 2026-04-21 22:38 | 55.98487 | -3.30351 | 3006 ft | 181 kts | 46° |
| 2026-04-21 22:38 | 55.99498 | -3.28762 | 3441 ft | 203 kts | 37° |
| 2026-04-21 22:38 | 56.00895 | -3.27986 | 4075 ft | 226 kts | 4° |
| 2026-04-21 22:39 | 56.02465 | -3.28814 | 4547 ft | 258 kts | 329° |
| 2026-04-21 22:39 | 56.03643 | -3.31378 | 5200 ft | 280 kts | 293° |
| 2026-04-21 22:39 | 56.03906 | -3.34846 | 5890 ft | 286 kts | 260° |
| 2026-04-21 22:39 | 56.03434 | -3.38325 | 6170 ft | 288 kts | 249° |
| 2026-04-21 22:40 | 56.02745 | -3.41688 | 6065 ft | 286 kts | 246° |
| 2026-04-21 22:40 | 56.02022 | -3.44969 | 6012 ft | 287 kts | 246° |
| 2026-04-21 22:40 | 56.01335 | -3.48329 | 6023 ft | 287 kts | 248° |
| 2026-04-21 22:40 | 56.00703 | -3.51719 | 6079 ft | 287 kts | 250° |
| 2026-04-21 22:41 | 56.00150 | -3.55152 | 6126 ft | 285 kts | 253° |
| 2026-04-21 22:41 | 55.99665 | -3.58587 | 6791 ft | 288 kts | 253° |
| 2026-04-21 22:41 | 55.99177 | -3.62079 | 7414 ft | 291 kts | 253° |
| 2026-04-21 22:41 | 55.98689 | -3.65619 | 8017 ft | 295 kts | 253° |
| 2026-04-21 22:42 | 55.98195 | -3.69135 | 8616 ft | 296 kts | 252° |
| 2026-04-21 22:42 | 55.97685 | -3.72714 | 9186 ft | 299 kts | 252° |
| 2026-04-21 22:42 | 55.97164 | -3.76318 | 9678 ft | 300 kts | 252° |
| 2026-04-21 22:42 | 55.96630 | -3.79937 | 10221 ft | 302 kts | 252° |
| 2026-04-21 22:43 | 55.96087 | -3.83584 | 10739 ft | 307 kts | 252° |